This is the latest recevied weather packets stored in our database for station/object YF9UAG-16. If no packets are shown the sender has not sent any weather packets the latest 10 day(s).
| Time | Temp. | Humidity | Pressure | Rain* | Wind** | Luminosity | Snow |
|---|---|---|---|---|---|---|---|
| 1777526755 | 30° C | 62% | 1008 hPa | - | - | 0 W/m² | - |
| 1777526433 | 31.11° C | 61% | 1008 hPa | - | - | 0 W/m² | - |
| 1777526111 | 31.67° C | 57% | 1008 hPa | - | - | 0 W/m² | - |
| 1777525789 | 31.67° C | 59% | 1008 hPa | - | - | 0 W/m² | - |
| 1777525467 | 33.89° C | 51% | 1008 hPa | - | - | 0 W/m² | - |
| 1777525145 | 33.33° C | 57% | 1008 hPa | - | - | 0 W/m² | - |
| 1777524823 | 31.11° C | 62% | 1008 hPa | - | - | 0 W/m² | - |
| 1777524501 | 30.56° C | 63% | 1008 hPa | - | - | 0 W/m² | - |
| 1777524179 | 31.11° C | 62% | 1008 hPa | - | - | 0 W/m² | - |
| 1777523857 | 31.11° C | 62% | 1008 hPa | - | - | 0 W/m² | - |
| 1777523535 | 31.67° C | 57% | 1008 hPa | - | - | 0 W/m² | - |
| 1777523213 | 32.22° C | 58% | 1009 hPa | - | - | 0 W/m² | - |
| 1777522891 | 33.33° C | 57% | 1009 hPa | - | - | 0 W/m² | - |
| 1777522569 | 33.89° C | 58% | 1009 hPa | - | - | 0 W/m² | - |
| 1777522247 | 33.89° C | 57% | 1009 hPa | - | - | 0 W/m² | - |
| 1777521925 | 32.78° C | 58% | 1009 hPa | - | - | 0 W/m² | - |
| 1777519314 | 29.44° C | 68% | 1009 hPa | - | - | 0 W/m² | - |
| 1777518991 | 28.89° C | 68% | 1010 hPa | - | - | 0 W/m² | - |
| 1777518670 | 30° C | 71% | 1010 hPa | - | - | 0 W/m² | - |
| 1777518348 | 29.44° C | 72% | 1010 hPa | - | - | 0 W/m² | - |
| 1777518026 | 29.44° C | 72% | 1010 hPa | - | - | 0 W/m² | - |
| 1777517703 | 28.89° C | 70% | 1010 hPa | - | - | 0 W/m² | - |
| 1777517381 | 27.78° C | 69% | 1010 hPa | - | - | 0 W/m² | - |
| 1777517059 | 28.33° C | 74% | 1010 hPa | - | - | 0 W/m² | - |
| 1777516738 | 28.33° C | 78% | 1010 hPa | - | - | 0 W/m² | - |
* Rain since midnight (hover to see other rain measurements)
** Current wind speed in m/s (hover to see current wind gust speed)